Time;durP1;ratioP1;P1;durP2;ratioP2;P2;SDS_P1;SDS_P2;PMS_P1;PMS_P2;Temp;Humidity;BMP_temperature;BMP_pressure;BME280_temperature;BME280_humidity;BME280_pressure;Samples;Min_cycle;Max_cycle;Signal;HPM_P1;HPM_P2
2024/02/15 00:01:33;;;;;;;10.60;5.38;;;;;;;11.55;99.92;101235.50;5036099;28;20073;-77
2024/02/15 00:04:04;;;;;;;10.18;5.53;;;;;;;11.56;100.00;101231.91;5036040;28;20050;-80
2024/02/15 00:06:36;;;;;;;11.32;6.20;;;;;;;11.57;99.67;101238.91;5028627;28;20050;-80
2024/02/15 00:09:03;;;;;;;11.73;5.72;;;;;;;11.52;99.79;101230.47;5023308;28;20056;-79
2024/02/15 00:11:33;;;;;;;11.60;6.00;;;;;;;11.58;99.56;101243.22;5020935;28;20077;-79
2024/02/15 00:14:01;;;;;;;8.13;6.13;;;;;;;11.66;99.08;101231.16;5019963;28;20069;-78
2024/02/15 00:16:28;;;;;;;13.18;5.55;;;;;;;11.66;98.92;101231.16;5018697;28;20492;-78
2024/02/15 00:18:59;;;;;;;13.13;5.55;;;;;;;11.64;98.91;101229.44;5020614;28;20063;-78
2024/02/15 00:21:26;;;;;;;14.73;6.25;;;;;;;11.66;99.23;101232.00;5020410;28;20057;-78
2024/02/15 00:23:54;;;;;;;14.20;5.70;;;;;;;11.60;99.49;101228.03;5019382;28;20050;-78
2024/02/15 00:26:21;;;;;;;16.27;6.10;;;;;;;11.70;98.54;101237.88;5019288;28;20508;-77
2024/02/15 00:28:49;;;;;;;11.90;6.20;;;;;;;11.70;98.67;101237.88;5020233;28;20050;-78
2024/02/15 00:31:18;;;;;;;18.75;7.13;;;;;;;11.68;99.04;101230.03;5019258;28;20424;-78
2024/02/15 00:33:45;;;;;;;16.30;6.38;;;;;;;11.69;99.00;101230.88;5018099;28;20129;-77
2024/02/15 00:36:13;;;;;;;9.15;5.85;;;;;;;11.64;99.37;101224.16;5017485;28;20057;-77
2024/02/15 00:38:40;;;;;;;11.98;6.03;;;;;;;11.65;99.25;101235.59;5017164;28;20088;-79
2024/02/15 00:41:07;;;;;;;12.02;5.88;;;;;;;11.66;99.12;101224.03;5019131;28;20054;-77
2024/02/15 00:43:36;;;;;;;16.50;6.05;;;;;;;11.62;99.13;101225.25;5019541;28;20073;-79
2024/02/15 00:46:07;;;;;;;11.13;5.85;;;;;;;11.67;99.30;101227.53;5020528;28;20046;-79
2024/02/15 00:48:38;;;;;;;13.38;5.75;;;;;;;11.68;99.14;101234.50;5003293;28;20421;-78
2024/02/15 00:51:26;;;;;;;14.13;5.78;;;;;;;11.73;98.76;101233.16;5018893;28;20057;-78
2024/02/15 00:53:57;;;;;;;13.52;5.68;;;;;;;11.74;98.40;101234.00;5014163;28;20053;-82
2024/02/15 00:56:30;;;;;;;12.73;6.10;;;;;;;11.74;98.67;101229.56;5020925;28;20269;-79
2024/02/15 00:58:57;;;;;;;19.70;6.55;;;;;;;11.77;98.55;101231.94;5019413;28;20492;-80
2024/02/15 01:01:24;;;;;;;13.05;5.80;;;;;;;11.80;98.79;101237.00;5021980;28;20046;-79
2024/02/15 01:03:51;;;;;;;12.00;6.18;;;;;;;11.75;98.99;101230.41;5020783;28;20075;-80
2024/02/15 01:06:18;;;;;;;10.65;6.30;;;;;;;11.67;99.55;101230.19;5020857;28;20045;-80
2024/02/15 01:08:44;;;;;;;12.85;6.20;;;;;;;11.68;99.68;101229.22;5019127;28;20443;-81
2024/02/15 01:11:13;;;;;;;12.82;6.40;;;;;;;11.58;100.00;101234.44;5020200;28;20084;-81
2024/02/15 01:13:40;;;;;;;15.02;5.50;;;;;;;11.56;100.00;101231.91;5022324;28;20042;-81
2024/02/15 01:16:08;;;;;;;16.58;6.68;;;;;;;11.58;100.00;101229.97;5019247;28;20054;-79
2024/02/15 01:18:35;;;;;;;13.93;7.32;;;;;;;11.60;100.00;101229.84;5000494;28;20042;-80
2024/02/15 01:21:04;;;;;;;16.48;6.53;;;;;;;11.63;100.00;101232.25;5007866;28;20046;-80
2024/02/15 01:23:36;;;;;;;13.20;5.95;;;;;;;11.61;99.94;101224.44;5019665;28;20081;-79
2024/02/15 01:26:06;;;;;;;12.77;6.18;;;;;;;11.67;100.00;101219.59;5020396;28;20050;-80
2024/02/15 01:28:33;;;;;;;12.15;6.05;;;;;;;11.67;100.00;101230.19;5019008;28;20417;-79
2024/02/15 01:31:01;;;;;;;12.65;6.43;;;;;;;11.52;100.00;101230.47;5019633;28;20049;-81
2024/02/15 01:33:28;;;;;;;15.05;6.35;;;;;;;11.45;100.00;101236.41;5019109;28;20050;-80
2024/02/15 01:35:56;;;;;;;12.45;5.80;;;;;;;11.45;100.00;101228.44;5017663;28;20488;-81
2024/02/15 01:38:24;;;;;;;14.68;6.28;;;;;;;11.39;100.00;101232.44;5017742;28;20153;-81
2024/02/15 01:40:51;;;;;;;10.65;6.10;;;;;;;11.37;100.00;101240.50;5019035;28;20109;-79
2024/02/15 01:43:17;;;;;;;14.00;6.10;;;;;;;11.34;100.00;101230.16;5018858;28;20110;-79
2024/02/15 01:45:46;;;;;;;14.20;5.93;;;;;;;11.37;100.00;101226.41;5020117;28;20045;-81
2024/02/15 01:48:15;;;;;;;11.10;5.95;;;;;;;11.34;100.00;101231.94;5020436;28;20049;-81
2024/02/15 01:50:42;;;;;;;17.23;6.70;;;;;;;11.33;100.00;101231.13;5019102;28;20065;-80
2024/02/15 01:53:10;;;;;;;8.70;5.47;;;;;;;11.30;100.00;101225.25;5020427;28;20147;-81
2024/02/15 01:55:39;;;;;;;15.88;6.95;;;;;;;11.27;100.00;101221.03;5020076;28;20089;-79
2024/02/15 01:58:06;;;;;;;13.20;6.45;;;;;;;11.24;100.00;101215.13;5020769;28;20042;-81
2024/02/15 02:00:33;;;;;;;13.02;6.75;;;;;;;11.21;100.00;101215.41;5017368;28;20054;-81
2024/02/15 02:03:03;;;;;;;10.70;6.95;;;;;;;11.12;100.00;101217.81;5007991;28;20161;-79
2024/02/15 02:05:30;;;;;;;9.50;6.97;;;;;;;11.06;100.00;101217.44;5023613;28;20089;-80
2024/02/15 02:07:59;;;;;;;9.65;6.20;;;;;;;11.02;100.00;101216.00;5026311;28;20068;-78
2024/02/15 02:10:27;;;;;;;10.82;6.60;;;;;;;10.99;100.00;101211.81;5025961;28;20104;-79
2024/02/15 02:12:55;;;;;;;12.35;7.32;;;;;;;10.96;100.00;101217.34;5022394;28;20073;-80
2024/02/15 02:15:22;;;;;;;9.40;6.30;;;;;;;10.97;100.00;101218.19;5013208;28;20481;-81
2024/02/15 02:17:50;;;;;;;9.20;5.78;;;;;;;10.94;100.00;101207.81;5020976;28;20049;-80
2024/02/15 02:20:17;;;;;;;9.30;5.45;;;;;;;10.95;100.00;101209.53;5020893;28;20084;-81
2024/02/15 02:22:46;;;;;;;9.20;5.80;;;;;;;10.93;100.00;101206.97;5019046;28;20050;-82
2024/02/15 02:25:15;;;;;;;10.88;5.32;;;;;;;10.96;100.00;101206.75;5018386;28;20128;-80
2024/02/15 02:27:41;;;;;;;8.18;4.95;;;;;;;10.95;100.00;101207.72;5018319;28;20401;-79
2024/02/15 02:30:15;;;;;;;9.27;5.15;;;;;;;10.99;100.00;101200.38;5021309;28;20084;-80
2024/02/15 02:32:41;;;;;;;11.15;5.05;;;;;;;10.99;100.00;101190.63;5015435;28;20054;-79
2024/02/15 02:35:11;;;;;;;10.68;5.00;;;;;;;10.97;100.00;101197.00;5021858;28;20488;-80
2024/02/15 02:37:38;;;;;;;6.63;4.80;;;;;;;10.95;100.00;101191.84;5014098;28;20057;-80
2024/02/15 02:40:07;;;;;;;6.15;4.13;;;;;;;10.96;100.00;101184.72;5019266;28;20134;-81
2024/02/15 02:42:35;;;;;;;9.05;4.30;;;;;;;10.96;100.00;101177.63;5020179;28;20408;-81
2024/02/15 02:45:02;;;;;;;6.00;4.20;;;;;;;11.00;100.00;101178.22;5020219;28;20078;-80
2024/02/15 02:47:28;;;;;;;5.55;4.22;;;;;;;10.96;100.00;101174.13;5018212;28;20057;-80
2024/02/15 02:49:55;;;;;;;9.48;4.85;;;;;;;11.05;99.89;101168.09;5018991;28;20112;-80
2024/02/15 02:52:21;;;;;;;7.68;5.05;;;;;;;11.00;99.96;101168.47;5019663;28;20114;-78
2024/02/15 02:54:48;;;;;;;7.70;4.63;;;;;;;11.01;99.92;101177.25;5023811;28;20058;-81
2024/02/15 02:57:15;;;;;;;8.20;4.75;;;;;;;10.98;99.99;101174.84;5023654;28;20546;-80
2024/02/15 02:59:43;;;;;;;7.07;4.57;;;;;;;11.00;99.55;101173.75;5022986;28;20129;-80
2024/02/15 03:02:09;;;;;;;6.15;4.40;;;;;;;11.00;99.27;101160.53;5022105;28;20050;-81
2024/02/15 03:04:38;;;;;;;6.22;4.55;;;;;;;10.99;99.71;101173.91;5022814;28;20183;-81
2024/02/15 03:07:05;;;;;;;8.30;4.60;;;;;;;10.93;100.00;101161.97;5024046;28;20053;-80
2024/02/15 03:09:33;;;;;;;5.45;4.45;;;;;;;10.98;100.00;101165.09;5023132;28;20050;-81
2024/02/15 03:12:01;;;;;;;7.00;4.28;;;;;;;10.97;99.56;101162.56;5020684;28;20421;-81
2024/02/15 03:14:30;;;;;;;7.97;4.35;;;;;;;10.93;100.00;101159.31;5021784;28;20065;-79
2024/02/15 03:16:58;;;;;;;6.10;4.78;;;;;;;10.92;99.86;101162.09;5022318;28;20052;-81
2024/02/15 03:19:26;;;;;;;6.40;4.57;;;;;;;10.91;99.86;101161.25;5022095;28;20105;-80
2024/02/15 03:21:58;;;;;;;8.05;4.30;;;;;;;10.91;100.00;101163.91;5022796;28;20046;-80
2024/02/15 03:24:25;;;;;;;7.65;4.38;;;;;;;10.92;100.00;101151.50;5022233;28;20096;-80
2024/02/15 03:26:51;;;;;;;8.50;4.55;;;;;;;10.90;100.00;101148.16;5023187;28;20050;-80
2024/02/15 03:29:20;;;;;;;6.75;4.72;;;;;;;10.89;99.96;101147.28;5022090;28;20069;-81
2024/02/15 03:31:48;;;;;;;6.68;4.72;;;;;;;10.88;100.00;101141.16;5022560;28;20056;-82
2024/02/15 03:34:16;;;;;;;10.05;5.10;;;;;;;10.93;99.72;101154.03;5022695;28;20069;-80
2024/02/15 03:36:43;;;;;;;8.02;5.03;;;;;;;10.91;99.23;101144.53;5022851;28;20508;-80
2024/02/15 03:39:09;;;;;;;8.60;4.93;;;;;;;10.88;100.00;101146.44;5021278;28;20046;-81
2024/02/15 03:41:36;;;;;;;9.00;5.50;;;;;;;10.88;100.00;101138.50;5022692;28;20092;-79
2024/02/15 03:44:03;;;;;;;7.00;5.50;;;;;;;10.85;100.00;101143.22;5022649;28;20100;-79
2024/02/15 03:46:30;;;;;;;9.98;6.25;;;;;;;10.83;100.00;101145.16;5022037;28;20549;-80
2024/02/15 03:48:59;;;;;;;10.63;5.70;;;;;;;10.80;100.00;101132.97;5022096;28;20053;-79
2024/02/15 03:51:27;;;;;;;13.80;5.78;;;;;;;10.76;100.00;101136.88;5022508;28;20057;-79
2024/02/15 03:53:58;;;;;;;10.32;5.90;;;;;;;10.75;100.00;101139.63;5022499;28;20176;-82
2024/02/15 03:56:25;;;;;;;10.82;6.25;;;;;;;10.73;100.00;101146.84;5010001;28;20543;-81
2024/02/15 03:58:55;;;;;;;10.05;6.60;;;;;;;10.68;100.00;101149.88;5022798;28;20479;-81
2024/02/15 04:01:22;;;;;;;9.05;6.90;;;;;;;10.68;100.00;101141.94;5014621;28;20049;-79
2024/02/15 04:03:49;;;;;;;8.75;6.78;;;;;;;10.67;100.00;101147.31;5022250;28;20533;-82
2024/02/15 04:06:16;;;;;;;10.85;7.85;;;;;;;10.61;100.00;101143.38;5021759;28;20161;-80
2024/02/15 04:08:44;;;;;;;10.23;7.63;;;;;;;10.53;100.00;101141.31;5021115;28;20388;-79
2024/02/15 04:11:10;;;;;;;11.93;7.57;;;;;;;10.51;100.00;101142.41;5020197;28;20056;-79
2024/02/15 04:13:37;;;;;;;12.98;7.90;;;;;;;10.49;100.00;101139.91;5022089;28;20057;-79
2024/02/15 04:16:04;;;;;;;10.52;8.25;;;;;;;10.51;100.00;101143.25;5022644;28;20073;-80
2024/02/15 04:18:32;;;;;;;13.32;8.55;;;;;;;10.53;100.00;101136.03;5021581;28;20049;-80
2024/02/15 04:21:00;;;;;;;13.10;8.57;;;;;;;10.52;100.00;101144.94;5022026;28;20054;-80
2024/02/15 04:23:26;;;;;;;12.13;8.25;;;;;;;10.52;100.00;101142.28;5021643;28;20050;-80
2024/02/15 04:25:54;;;;;;;10.50;8.30;;;;;;;10.55;100.00;101131.47;5022034;28;20092;-80
2024/02/15 04:28:21;;;;;;;14.63;8.77;;;;;;;10.54;100.00;101134.25;5021334;28;20125;-79
2024/02/15 04:30:48;;;;;;;11.00;8.20;;;;;;;10.52;100.00;101144.94;5020854;28;20053;-79
2024/02/15 04:33:16;;;;;;;12.25;8.45;;;;;;;10.58;100.00;101138.31;5021322;28;20057;-79
2024/02/15 04:35:43;;;;;;;9.98;8.20;;;;;;;10.58;100.00;101147.13;5015207;28;20085;-81
2024/02/15 04:38:10;;;;;;;11.88;7.63;;;;;;;10.58;100.00;101148.88;5021663;28;20061;-82
2024/02/15 04:40:39;;;;;;;9.50;7.30;;;;;;;10.53;100.00;101143.97;5021450;28;20046;-80
2024/02/15 04:43:08;;;;;;;9.02;7.30;;;;;;;10.57;100.00;101141.91;5019440;28;20065;-79
2024/02/15 04:45:35;;;;;;;11.57;7.57;;;;;;;10.55;100.00;101144.69;5013054;28;20054;-82
2024/02/15 04:48:02;;;;;;;10.93;7.20;;;;;;;10.57;100.00;101142.75;5021346;28;20053;-79
2024/02/15 04:50:30;;;;;;;10.23;6.22;;;;;;;10.60;100.00;101134.59;5022399;28;20046;-81
2024/02/15 04:52:57;;;;;;;9.00;6.40;;;;;;;10.63;100.00;101131.72;5026437;28;20053;-79
2024/02/15 04:58:54;;;;;;;10.05;6.10;;;;;;;10.69;100.00;101137.47;5016858;28;20042;-79
2024/02/15 05:01:23;;;;;;;9.32;6.10;;;;;;;10.73;100.00;101136.25;5016902;28;20056;-81
2024/02/15 05:03:57;;;;;;;10.82;7.00;;;;;;;10.71;100.00;101128.44;5019611;28;20058;-81
2024/02/15 05:06:26;;;;;;;9.20;6.13;;;;;;;10.68;100.00;101133.97;5012069;28;20050;-81
2024/02/15 05:08:52;;;;;;;10.35;7.15;;;;;;;10.63;100.00;101121.13;5019629;28;20047;-81
2024/02/15 05:11:19;;;;;;;7.47;6.30;;;;;;;10.63;100.00;101122.94;5019049;28;20089;-80
2024/02/15 05:13:46;;;;;;;10.15;6.70;;;;;;;10.59;100.00;101119.69;5019468;28;20054;-79
2024/02/15 05:16:13;;;;;;;12.27;7.15;;;;;;;10.60;100.00;101116.06;5021424;28;20492;-78
2024/02/15 05:18:41;;;;;;;12.32;6.97;;;;;;;10.66;100.00;101117.38;5019903;28;20074;-81
2024/02/15 05:21:09;;;;;;;12.02;6.72;;;;;;;10.68;100.00;101114.63;5019889;28;20084;-78
2024/02/15 05:23:36;;;;;;;9.77;6.13;;;;;;;10.72;100.00;101108.94;5017448;28;20416;-79
2024/02/15 05:26:04;;;;;;;9.40;6.15;;;;;;;10.77;99.86;101105.94;5016858;28;20099;-79
2024/02/15 05:28:30;;;;;;;9.32;6.45;;;;;;;10.79;99.86;101107.47;5016889;28;20053;-78
2024/02/15 05:31:11;;;;;;;9.55;6.20;;;;;;;10.85;98.57;101112.28;5017952;28;20049;-78
2024/02/15 05:33:42;;;;;;;13.10;5.47;;;;;;;10.90;98.42;101117.22;5017526;28;20133;-80
2024/02/15 05:36:13;;;;;;;10.32;6.10;;;;;;;10.93;98.43;101116.94;5018798;28;20577;-78
2024/02/15 05:38:40;;;;;;;10.52;5.97;;;;;;;10.96;98.23;101121.16;5017304;28;20574;-78
2024/02/15 05:41:07;;;;;;;11.80;6.20;;;;;;;10.92;98.32;101120.56;5017738;28;20054;-78
2024/02/15 05:43:36;;;;;;;11.02;6.38;;;;;;;10.94;98.54;101120.44;5019946;28;20049;-79
2024/02/15 05:46:03;;;;;;;13.40;6.50;;;;;;;10.93;98.15;101116.94;5020404;28;20057;-82
2024/02/15 05:48:29;;;;;;;11.15;6.63;;;;;;;10.92;98.51;101112.63;5018679;28;20114;-79
2024/02/15 05:50:59;;;;;;;10.55;5.97;;;;;;;10.93;98.58;101109.00;5020076;28;20143;-82
2024/02/15 05:53:27;;;;;;;7.03;6.18;;;;;;;10.93;98.21;101116.09;5018394;28;20042;-80
2024/02/15 05:55:54;;;;;;;10.38;6.47;;;;;;;10.89;98.79;101112.88;5017269;28;20054;-80
2024/02/15 05:58:23;;;;;;;13.55;6.80;;;;;;;10.85;99.39;101119.41;5016435;28;20054;-80
2024/02/15 06:00:49;;;;;;;13.30;6.93;;;;;;;10.86;99.07;101110.47;5017395;28;20136;-79
2024/02/15 06:03:18;;;;;;;17.58;7.07;;;;;;;10.81;99.92;101110.03;5021818;28;20050;-82
2024/02/15 06:05:45;;;;;;;10.75;7.15;;;;;;;10.80;99.44;101106.50;5024825;28;20099;-81
2024/02/15 06:08:20;;;;;;;10.52;7.35;;;;;;;10.81;99.47;101112.66;5024406;28;20057;-81
2024/02/15 06:10:50;;;;;;;10.57;6.97;;;;;;;10.84;99.53;101112.41;5025706;28;20050;-81
2024/02/15 06:13:20;;;;;;;11.18;6.65;;;;;;;10.83;99.02;101110.72;5023818;28;20448;-82
2024/02/15 06:15:52;;;;;;;10.80;7.40;;;;;;;10.78;99.17;101110.25;5023686;28;20046;-81
2024/02/15 06:18:24;;;;;;;11.52;7.47;;;;;;;10.71;100.00;101098.47;5024877;28;20507;-83
2024/02/15 06:20:56;;;;;;;12.18;7.65;;;;;;;10.71;100.00;101095.81;5023381;28;20050;-82
2024/02/15 06:23:28;;;;;;;12.77;8.98;;;;;;;10.74;99.79;101101.72;5023439;28;20056;-79
2024/02/15 06:26:00;;;;;;;13.57;9.30;;;;;;;10.71;99.85;101098.47;5019313;28;20109;-82
2024/02/15 06:40:23;;;;;;;14.50;8.52;;;;;;;10.78;99.97;101107.63;5023792;28;20131;-80
2024/02/15 06:42:53;;;;;;;15.88;8.93;;;;;;;10.77;100.00;101111.22;5025086;28;20073;-80
2024/02/15 06:45:22;;;;;;;18.05;8.75;;;;;;;10.77;100.00;101121.81;5024374;28;20144;-81
2024/02/15 06:47:49;;;;;;;12.73;8.27;;;;;;;10.81;99.70;101112.66;5023443;28;20089;-82
2024/02/15 06:50:17;;;;;;;14.52;9.07;;;;;;;10.79;99.75;101115.41;5022678;28;20125;-81
2024/02/15 06:52:44;;;;;;;17.20;10.82;;;;;;;10.80;100.00;101117.09;5018126;28;20560;-80
2024/02/15 06:55:14;;;;;;;12.80;8.30;;;;;;;10.82;99.70;101117.84;5022747;28;20053;-79
2024/02/15 06:57:42;;;;;;;12.95;7.75;;;;;;;10.82;99.67;101114.34;5021330;28;20136;-80
2024/02/15 07:00:15;;;;;;;10.30;7.70;;;;;;;10.82;99.98;101106.41;5019984;28;20534;-81
2024/02/15 07:02:44;;;;;;;13.73;8.32;;;;;;;10.78;99.71;101119.03;5019494;28;20057;-81
2024/02/15 07:05:17;;;;;;;14.80;8.27;;;;;;;10.83;99.06;101108.06;5019706;28;20445;-80
2024/02/15 07:07:44;;;;;;;14.95;7.78;;;;;;;10.83;99.65;101105.44;5019972;28;20050;-80
2024/02/15 07:10:13;;;;;;;11.52;7.75;;;;;;;10.84;99.80;101109.75;5021897;28;20125;-83
2024/02/15 07:12:41;;;;;;;14.43;8.50;;;;;;;10.84;99.93;101107.94;5020890;28;20056;-82
2024/02/15 07:15:11;;;;;;;16.05;7.95;;;;;;;10.88;99.14;101108.53;5019256;28;20153;-81
2024/02/15 07:17:39;;;;;;;15.63;8.20;;;;;;;10.90;98.87;101111.94;5014018;28;20053;-81
2024/02/15 07:20:10;;;;;;;16.60;8.15;;;;;;;10.89;98.62;101104.91;5020966;28;20050;-81
2024/02/15 07:22:56;;;;;;;14.07;7.70;;;;;;;10.90;98.84;101106.63;5150410;23;20045;-80
2024/02/15 07:26:04;;;;;;;12.07;7.57;;;;;;;10.95;98.43;101111.56;5043460;28;20042;-81
2024/02/15 07:28:50;;;;;;;11.82;7.88;;;;;;;10.93;99.06;101111.66;5048528;28;20049;-82
2024/02/15 07:31:30;;;;;;;16.50;8.00;;;;;;;10.94;98.62;101113.34;5061263;28;20033;-80
2024/02/15 07:33:57;;;;;;;18.67;7.90;;;;;;;11.02;97.63;101105.59;5043613;28;20057;-80
2024/02/15 07:36:25;;;;;;;13.00;7.00;;;;;;;11.06;97.32;101096.44;5056743;28;20041;-81
2024/02/15 07:39:00;;;;;;;14.75;7.05;;;;;;;11.10;97.01;101105.00;5044572;28;20065;-81
2024/02/15 07:41:31;;;;;;;12.30;7.20;;;;;;;11.13;96.44;101110.03;5041853;28;20059;-81
2024/02/15 07:43:58;;;;;;;15.38;6.97;;;;;;;11.16;96.04;101106.28;5028330;28;20113;-80
2024/02/15 07:46:32;;;;;;;11.18;7.03;;;;;;;11.17;95.80;101108.81;5041571;28;20057;-81
2024/02/15 07:48:59;;;;;;;14.05;7.22;;;;;;;11.25;95.38;101103.75;5040703;28;20325;-81
2024/02/15 07:51:27;;;;;;;11.45;6.82;;;;;;;11.23;95.70;101107.47;5040898;28;20065;-79
2024/02/15 07:53:57;;;;;;;14.45;7.18;;;;;;;11.25;95.54;101106.38;5034727;28;20061;-81
2024/02/15 07:56:27;;;;;;;17.38;7.88;;;;;;;11.26;95.66;101112.53;5042023;28;20056;-81
2024/02/15 07:58:54;;;;;;;11.75;6.72;;;;;;;11.29;95.12;101112.25;5041500;28;20045;-81
2024/02/15 08:01:27;;;;;;;11.48;7.10;;;;;;;11.33;95.20;101111.88;5036749;28;20455;-80
2024/02/15 08:04:09;;;;;;;13.95;6.97;;;;;;;11.29;95.73;101112.25;5037194;28;20057;-81
2024/02/15 08:06:53;;;;;;;13.27;8.63;;;;;;;11.22;97.02;101109.28;5028015;28;20108;-81
2024/02/15 08:09:23;;;;;;;15.82;9.20;;;;;;;11.16;97.75;101100.97;5020955;28;20050;-82
2024/02/15 08:11:56;;;;;;;12.68;7.68;;;;;;;11.17;97.20;101103.53;5039080;28;20140;-82
2024/02/15 08:14:23;;;;;;;13.30;7.60;;;;;;;11.18;97.58;101104.38;5039086;28;20135;-80
2024/02/15 08:16:59;;;;;;;13.50;6.82;;;;;;;11.22;97.17;101100.50;5040451;28;20279;-78
2024/02/15 08:22:38;;;;;;;11.63;6.10;;;;;;;11.34;96.56;101102.09;5038443;28;20207;-83
2024/02/15 08:25:10;;;;;;;13.85;6.47;;;;;;;11.32;96.88;101096.09;5035215;28;20050;-82
2024/02/15 08:27:40;;;;;;;11.50;6.60;;;;;;;11.35;97.15;101095.88;5040032;28;20056;-80
2024/02/15 08:30:10;;;;;;;12.05;6.05;;;;;;;11.36;97.14;101086.94;5040051;28;20045;-81
2024/02/15 08:32:36;;;;;;;10.57;6.15;;;;;;;11.38;97.36;101085.00;5034784;28;20076;-81
2024/02/15 08:35:05;;;;;;;15.35;6.20;;;;;;;11.33;97.90;101082.72;5042303;28;20053;-82
2024/02/15 08:37:34;;;;;;;12.43;6.85;;;;;;;11.35;97.53;101083.44;5040895;28;20045;-80
2024/02/15 08:40:00;;;;;;;11.73;5.93;;;;;;;11.29;97.74;101076.00;5037575;28;20052;-79
2024/02/15 08:42:27;;;;;;;9.77;5.38;;;;;;;11.35;97.41;101074.66;5038240;28;20054;-80
2024/02/15 08:44:55;;;;;;;14.18;5.60;;;;;;;11.43;97.05;101084.59;5037997;28;20483;-81
2024/02/15 08:47:22;;;;;;;12.35;5.30;;;;;;;11.41;97.12;101074.13;5038567;28;20056;-81
2024/02/15 08:49:48;;;;;;;18.98;8.77;;;;;;;11.51;96.95;101079.50;5039286;28;20121;-81
2024/02/15 08:52:18;;;;;;;11.85;5.72;;;;;;;11.64;95.74;101075.69;5038729;28;20069;-81
2024/02/15 08:54:45;;;;;;;13.70;5.32;;;;;;;11.69;95.64;101072.63;5030839;28;20057;-80
2024/02/15 08:57:13;;;;;;;7.93;5.07;;;;;;;11.79;94.72;101070.91;5038364;28;20112;-82
2024/02/15 08:59:42;;;;;;;10.27;5.25;;;;;;;11.83;93.64;101058.22;5038771;28;20092;-79
2024/02/15 09:02:10;;;;;;;8.32;5.03;;;;;;;11.86;94.10;101060.63;5038578;28;20063;-81
2024/02/15 09:04:36;;;;;;;8.93;5.53;;;;;;;11.73;95.34;101073.22;5038558;28;20108;-81
2024/02/15 09:07:04;;;;;;;10.90;5.70;;;;;;;11.77;94.24;101064.03;5038257;28;20081;-82
2024/02/15 09:09:33;;;;;;;11.80;5.80;;;;;;;11.84;93.62;101063.44;5037948;28;20060;-81
2024/02/15 09:12:02;;;;;;;11.80;5.80;;;;;;;11.91;93.32;101063.72;5038943;28;20053;-82
2024/02/15 09:14:28;;;;;;;14.40;6.05;;;;;;;11.91;94.17;101061.06;5039163;28;20076;-81
2024/02/15 09:16:55;;;;;;;10.93;6.10;;;;;;;12.09;92.80;101061.28;5039988;28;20088;-81
2024/02/15 09:19:23;;;;;;;9.85;5.43;;;;;;;12.13;92.99;101062.72;5032566;28;20057;-81
2024/02/15 09:21:53;;;;;;;10.32;5.63;;;;;;;12.18;91.90;101063.16;5046999;28;20053;-80
2024/02/15 09:24:20;;;;;;;10.45;5.38;;;;;;;12.17;91.60;101061.47;5054457;28;20049;-81
2024/02/15 09:26:48;;;;;;;9.25;5.63;;;;;;;12.29;91.22;101065.72;5054000;28;20056;-81
2024/02/15 09:29:15;;;;;;;9.98;5.65;;;;;;;12.23;91.16;101060.09;5053995;28;20064;-80
2024/02/15 09:31:41;;;;;;;11.65;6.00;;;;;;;12.21;91.64;101062.06;5041799;28;20087;-82
2024/02/15 09:34:08;;;;;;;13.43;6.03;;;;;;;12.30;91.57;101071.84;5038612;28;20420;-82
2024/02/15 09:36:40;;;;;;;10.93;6.10;;;;;;;12.28;91.87;101071.16;5033344;28;20073;-82
2024/02/15 09:39:07;;;;;;;12.05;6.60;;;;;;;12.25;92.36;101077.56;5019876;28;20054;-81
2024/02/15 09:41:34;;;;;;;14.30;6.93;;;;;;;12.36;91.50;101066.84;5031916;28;20037;-81
2024/02/15 09:44:03;;;;;;;10.07;5.97;;;;;;;12.51;91.21;101069.97;5032935;28;20590;-79
2024/02/15 09:46:31;;;;;;;12.60;6.45;;;;;;;12.60;90.16;101071.81;5035953;28;20116;-80
2024/02/15 09:48:59;;;;;;;11.18;6.15;;;;;;;12.67;90.21;101066.78;5039002;28;20088;-82
2024/02/15 09:51:27;;;;;;;11.00;6.03;;;;;;;12.86;88.82;101069.47;5040242;28;20137;-80
2024/02/15 09:53:57;;;;;;;9.98;5.95;;;;;;;12.89;88.75;101061.22;5040380;28;20049;-82
2024/02/15 09:56:25;;;;;;;12.27;6.05;;;;;;;12.99;88.81;101063.91;5027090;28;20113;-83
2024/02/15 09:58:52;;;;;;;10.43;5.95;;;;;;;12.97;87.45;101063.19;5038508;28;20132;-84
2024/02/15 10:01:23;;;;;;;12.00;6.10;;;;;;;13.05;88.16;101067.81;5039389;28;20128;-82
2024/02/15 10:03:51;;;;;;;12.05;6.47;;;;;;;12.98;87.47;101066.69;5023007;28;20178;-81
2024/02/15 10:06:18;;;;;;;13.52;6.30;;;;;;;12.84;88.99;101066.09;5038610;28;20053;-82
2024/02/15 10:08:46;;;;;;;12.15;5.95;;;;;;;12.80;88.62;101066.53;5040010;28;20060;-81
2024/02/15 10:11:15;;;;;;;15.60;5.78;;;;;;;12.99;87.91;101058.59;5040469;28;20056;-81
2024/02/15 10:13:44;;;;;;;10.07;6.07;;;;;;;12.98;88.25;101066.69;5039669;28;20046;-81
2024/02/15 10:16:16;;;;;;;10.32;6.15;;;;;;;12.98;87.80;101062.19;5040381;28;20057;-82
2024/02/15 10:18:44;;;;;;;11.60;5.90;;;;;;;13.01;87.36;101067.25;5039903;28;20057;-81
2024/02/15 10:21:11;;;;;;;8.80;5.53;;;;;;;13.04;87.44;101066.16;5039071;28;20053;-82
2024/02/15 10:23:37;;;;;;;11.02;5.97;;;;;;;13.08;87.59;101068.38;5040097;28;20049;-82
2024/02/15 10:26:22;;;;;;;12.00;6.13;;;;;;;13.16;87.23;101071.16;5039625;28;20053;-81
2024/02/15 10:29:07;;;;;;;10.40;5.35;;;;;;;13.20;86.45;101057.59;5040874;28;20132;-81
2024/02/15 10:31:36;;;;;;;8.82;5.20;;;;;;;13.33;86.20;101063.50;5039787;28;20099;-83
2024/02/15 10:34:12;;;;;;;13.52;6.43;;;;;;;13.26;86.24;101060.56;5041670;28;20077;-82
2024/02/15 10:36:51;;;;;;;9.25;4.95;;;;;;;13.44;84.74;101058.03;5041606;28;20092;-84
2024/02/15 10:39:21;;;;;;;9.80;4.85;;;;;;;13.49;84.85;101061.09;5040436;28;20049;-84
2024/02/15 10:41:49;;;;;;;10.65;5.05;;;;;;;13.49;84.60;101053.13;5039737;28;20137;-82
2024/02/15 10:44:34;;;;;;;9.48;4.50;;;;;;;13.54;84.67;101053.53;5039561;28;20492;-81
2024/02/15 10:47:06;;;;;;;9.70;4.85;;;;;;;13.58;84.79;101051.44;5025501;28;20053;-81
2024/02/15 10:49:39;;;;;;;11.10;5.40;;;;;;;13.55;84.93;101049.88;5043950;28;20049;-82
2024/02/15 10:52:11;;;;;;;11.27;4.40;;;;;;;13.61;84.82;101046.66;5044881;28;20041;-83
2024/02/15 10:54:42;;;;;;;10.47;4.77;;;;;;;13.76;84.16;101052.38;5028016;28;20050;-80
2024/02/15 10:57:11;;;;;;;10.13;4.63;;;;;;;13.82;83.78;101045.63;5043053;28;20430;-81
2024/02/15 10:59:48;;;;;;;9.05;4.65;;;;;;;13.95;83.13;101034.66;5035446;28;20104;-81
2024/02/15 11:02:31;;;;;;;12.10;4.80;;;;;;;13.94;83.17;101030.31;5037178;28;20050;-80
2024/02/15 11:05:05;;;;;;;9.18;4.60;;;;;;;14.12;82.09;101034.72;5029222;28;20080;-81
2024/02/15 11:07:33;;;;;;;9.00;4.45;;;;;;;14.13;81.80;101028.41;5036653;28;20061;-82
2024/02/15 11:10:00;;;;;;;9.20;4.75;;;;;;;14.23;81.04;101020.38;5053019;28;20084;-81
2024/02/15 11:12:27;;;;;;;12.93;4.60;;;;;;;14.20;81.08;101022.47;5053287;28;20049;-82
2024/02/15 11:14:54;;;;;;;10.52;4.50;;;;;;;14.29;80.63;101018.97;5053528;28;20049;-82
2024/02/15 11:17:55;;;;;;;7.05;4.07;;;;;;;14.44;80.11;101020.13;5053041;28;20053;-80
2024/02/15 11:20:50;;;;;;;9.57;4.03;;;;;;;14.48;79.82;101010.88;4986894;28;20054;-82
2024/02/15 11:23:26;;;;;;;7.55;4.53;;;;;;;14.52;79.18;101008.75;5048651;28;20084;-82
2024/02/15 11:25:53;;;;;;;8.38;4.47;;;;;;;14.57;78.36;101006.47;5048265;28;20053;-83
2024/02/15 11:28:38;;;;;;;6.45;3.90;;;;;;;14.79;78.55;101003.38;5046230;28;20081;-80
2024/02/15 11:31:09;;;;;;;8.55;4.50;;;;;;;14.79;78.25;100998.03;5048288;28;20045;-80
2024/02/15 11:33:38;;;;;;;7.45;4.00;;;;;;;14.88;77.57;101001.59;5048191;28;20534;-81
2024/02/15 11:36:08;;;;;;;8.85;5.03;;;;;;;14.95;77.69;100992.00;5047520;28;20073;-82
2024/02/15 11:38:36;;;;;;;7.25;4.07;;;;;;;14.93;77.54;100988.66;5049366;28;20056;-81
2024/02/15 11:41:05;;;;;;;9.73;4.35;;;;;;;14.94;77.66;100987.66;5048972;28;20056;-81
2024/02/15 11:43:55;;;;;;;10.65;4.30;;;;;;;14.94;78.18;100977.00;5046066;28;20101;-81
2024/02/15 11:46:24;;;;;;;9.68;4.20;;;;;;;15.01;77.56;100980.72;5047088;28;20452;-82